sensor_id;sensor_type;location;lat;lon;timestamp;P1;durP1;ratioP1;P2;durP2;ratioP2
20609;SDS011;10463;52.378;9.688;2023-05-07T00:02:43;4.80;;;4.40;;
20609;SDS011;10463;52.378;9.688;2023-05-07T00:05:30;4.97;;;4.50;;
20609;SDS011;10463;52.378;9.688;2023-05-07T00:08:14;6.10;;;5.23;;
20609;SDS011;10463;52.378;9.688;2023-05-07T00:10:59;5.17;;;4.67;;
20609;SDS011;10463;52.378;9.688;2023-05-07T00:13:43;4.93;;;4.43;;
20609;SDS011;10463;52.378;9.688;2023-05-07T00:16:28;5.07;;;4.60;;
20609;SDS011;10463;52.378;9.688;2023-05-07T00:19:13;5.23;;;4.80;;
20609;SDS011;10463;52.378;9.688;2023-05-07T00:21:59;4.87;;;4.47;;
20609;SDS011;10463;52.378;9.688;2023-05-07T00:24:44;4.57;;;4.10;;
20609;SDS011;10463;52.378;9.688;2023-05-07T00:27:29;5.57;;;5.03;;
20609;SDS011;10463;52.378;9.688;2023-05-07T00:30:13;5.27;;;4.77;;
20609;SDS011;10463;52.378;9.688;2023-05-07T00:32:58;5.83;;;5.00;;
20609;SDS011;10463;52.378;9.688;2023-05-07T00:35:43;5.10;;;4.70;;
20609;SDS011;10463;52.378;9.688;2023-05-07T00:38:30;5.47;;;4.97;;
20609;SDS011;10463;52.378;9.688;2023-05-07T00:41:15;5.13;;;4.63;;
20609;SDS011;10463;52.378;9.688;2023-05-07T00:43:59;5.67;;;4.87;;
20609;SDS011;10463;52.378;9.688;2023-05-07T00:46:46;4.80;;;4.30;;
20609;SDS011;10463;52.378;9.688;2023-05-07T00:49:37;6.03;;;5.43;;
20609;SDS011;10463;52.378;9.688;2023-05-07T00:52:24;4.90;;;4.47;;
20609;SDS011;10463;52.378;9.688;2023-05-07T00:55:11;6.13;;;5.53;;
20609;SDS011;10463;52.378;9.688;2023-05-07T00:57:58;7.23;;;4.80;;
20609;SDS011;10463;52.378;9.688;2023-05-07T01:00:43;5.03;;;4.53;;
20609;SDS011;10463;52.378;9.688;2023-05-07T01:03:28;6.27;;;5.77;;
20609;SDS011;10463;52.378;9.688;2023-05-07T01:06:13;5.63;;;4.80;;
20609;SDS011;10463;52.378;9.688;2023-05-07T01:09:00;6.30;;;5.17;;
20609;SDS011;10463;52.378;9.688;2023-05-07T01:11:50;5.83;;;4.73;;
20609;SDS011;10463;52.378;9.688;2023-05-07T01:14:36;4.93;;;4.43;;
20609;SDS011;10463;52.378;9.688;2023-05-07T01:17:21;5.40;;;4.90;;
20609;SDS011;10463;52.378;9.688;2023-05-07T01:20:07;4.97;;;4.47;;
20609;SDS011;10463;52.378;9.688;2023-05-07T01:22:56;5.23;;;4.73;;
20609;SDS011;10463;52.378;9.688;2023-05-07T01:25:42;5.43;;;5.00;;
20609;SDS011;10463;52.378;9.688;2023-05-07T01:28:31;4.93;;;4.40;;
20609;SDS011;10463;52.378;9.688;2023-05-07T01:31:18;5.20;;;4.60;;
20609;SDS011;10463;52.378;9.688;2023-05-07T01:34:04;6.00;;;4.97;;
20609;SDS011;10463;52.378;9.688;2023-05-07T01:36:52;5.37;;;4.87;;
20609;SDS011;10463;52.378;9.688;2023-05-07T01:39:40;4.50;;;4.10;;
20609;SDS011;10463;52.378;9.688;2023-05-07T01:42:26;5.43;;;4.93;;
20609;SDS011;10463;52.378;9.688;2023-05-07T01:45:11;5.60;;;5.03;;
20609;SDS011;10463;52.378;9.688;2023-05-07T01:47:56;4.67;;;4.00;;
20609;SDS011;10463;52.378;9.688;2023-05-07T01:50:42;5.13;;;4.63;;
20609;SDS011;10463;52.378;9.688;2023-05-07T01:53:28;5.60;;;4.77;;
20609;SDS011;10463;52.378;9.688;2023-05-07T01:56:21;5.23;;;4.70;;
20609;SDS011;10463;52.378;9.688;2023-05-07T01:59:07;5.10;;;4.60;;
20609;SDS011;10463;52.378;9.688;2023-05-07T02:01:51;4.90;;;4.30;;
20609;SDS011;10463;52.378;9.688;2023-05-07T02:04:36;4.50;;;4.10;;
20609;SDS011;10463;52.378;9.688;2023-05-07T02:07:21;4.37;;;3.90;;
20609;SDS011;10463;52.378;9.688;2023-05-07T02:10:07;4.87;;;4.47;;
20609;SDS011;10463;52.378;9.688;2023-05-07T02:12:53;5.07;;;4.37;;
20609;SDS011;10463;52.378;9.688;2023-05-07T02:15:38;5.20;;;4.70;;
20609;SDS011;10463;52.378;9.688;2023-05-07T02:18:23;4.50;;;4.10;;
20609;SDS011;10463;52.378;9.688;2023-05-07T02:21:08;4.43;;;4.00;;
20609;SDS011;10463;52.378;9.688;2023-05-07T02:23:53;5.10;;;4.60;;
20609;SDS011;10463;52.378;9.688;2023-05-07T02:26:39;3.87;;;3.53;;
20609;SDS011;10463;52.378;9.688;2023-05-07T02:29:25;4.60;;;4.17;;
20609;SDS011;10463;52.378;9.688;2023-05-07T02:32:11;4.73;;;3.90;;
20609;SDS011;10463;52.378;9.688;2023-05-07T02:34:56;4.23;;;3.83;;
20609;SDS011;10463;52.378;9.688;2023-05-07T02:37:40;4.50;;;4.10;;
20609;SDS011;10463;52.378;9.688;2023-05-07T02:40:25;4.40;;;3.93;;
20609;SDS011;10463;52.378;9.688;2023-05-07T02:43:10;3.93;;;3.53;;
20609;SDS011;10463;52.378;9.688;2023-05-07T02:46:05;4.37;;;3.97;;
20609;SDS011;10463;52.378;9.688;2023-05-07T02:48:53;3.70;;;3.37;;
20609;SDS011;10463;52.378;9.688;2023-05-07T02:51:38;3.67;;;3.37;;
20609;SDS011;10463;52.378;9.688;2023-05-07T02:54:28;3.77;;;3.37;;
20609;SDS011;10463;52.378;9.688;2023-05-07T02:57:13;4.20;;;3.60;;
20609;SDS011;10463;52.378;9.688;2023-05-07T02:59:58;3.83;;;3.43;;
20609;SDS011;10463;52.378;9.688;2023-05-07T03:02:45;3.60;;;3.30;;
20609;SDS011;10463;52.378;9.688;2023-05-07T03:05:30;3.90;;;3.30;;
20609;SDS011;10463;52.378;9.688;2023-05-07T03:08:14;3.03;;;2.73;;
20609;SDS011;10463;52.378;9.688;2023-05-07T03:10:59;3.83;;;3.53;;
20609;SDS011;10463;52.378;9.688;2023-05-07T03:13:44;4.07;;;3.23;;
20609;SDS011;10463;52.378;9.688;2023-05-07T03:16:29;3.20;;;2.90;;
20609;SDS011;10463;52.378;9.688;2023-05-07T03:19:15;4.13;;;3.10;;
20609;SDS011;10463;52.378;9.688;2023-05-07T03:22:00;3.43;;;2.83;;
20609;SDS011;10463;52.378;9.688;2023-05-07T03:24:45;3.17;;;2.87;;
20609;SDS011;10463;52.378;9.688;2023-05-07T03:27:30;3.17;;;2.73;;
20609;SDS011;10463;52.378;9.688;2023-05-07T03:30:15;3.30;;;2.67;;
20609;SDS011;10463;52.378;9.688;2023-05-07T03:32:59;3.50;;;2.60;;
20609;SDS011;10463;52.378;9.688;2023-05-07T03:35:46;3.13;;;2.83;;
20609;SDS011;10463;52.378;9.688;2023-05-07T03:38:36;2.93;;;2.70;;
20609;SDS011;10463;52.378;9.688;2023-05-07T03:41:20;2.90;;;2.60;;
20609;SDS011;10463;52.378;9.688;2023-05-07T03:44:05;3.77;;;3.47;;
20609;SDS011;10463;52.378;9.688;2023-05-07T03:46:51;3.47;;;3.17;;
20609;SDS011;10463;52.378;9.688;2023-05-07T03:49:35;3.00;;;2.50;;
20609;SDS011;10463;52.378;9.688;2023-05-07T03:52:22;3.03;;;2.60;;
20609;SDS011;10463;52.378;9.688;2023-05-07T03:55:10;2.40;;;2.20;;
20609;SDS011;10463;52.378;9.688;2023-05-07T03:57:57;3.10;;;2.80;;
20609;SDS011;10463;52.378;9.688;2023-05-07T04:00:45;3.27;;;2.73;;
20609;SDS011;10463;52.378;9.688;2023-05-07T04:03:41;2.90;;;2.60;;
20609;SDS011;10463;52.378;9.688;2023-05-07T04:06:26;2.90;;;2.53;;
20609;SDS011;10463;52.378;9.688;2023-05-07T04:09:13;3.00;;;2.57;;
20609;SDS011;10463;52.378;9.688;2023-05-07T04:11:58;2.87;;;2.33;;
20609;SDS011;10463;52.378;9.688;2023-05-07T04:14:43;2.87;;;2.33;;
20609;SDS011;10463;52.378;9.688;2023-05-07T04:17:28;2.83;;;2.33;;
20609;SDS011;10463;52.378;9.688;2023-05-07T04:20:14;3.03;;;2.73;;
20609;SDS011;10463;52.378;9.688;2023-05-07T04:23:01;2.70;;;2.40;;
20609;SDS011;10463;52.378;9.688;2023-05-07T04:25:48;3.00;;;2.70;;
20609;SDS011;10463;52.378;9.688;2023-05-07T04:28:41;2.37;;;1.83;;
20609;SDS011;10463;52.378;9.688;2023-05-07T04:31:27;2.63;;;1.97;;
20609;SDS011;10463;52.378;9.688;2023-05-07T04:34:12;3.30;;;2.10;;
20609;SDS011;10463;52.378;9.688;2023-05-07T04:36:59;3.87;;;2.23;;
20609;SDS011;10463;52.378;9.688;2023-05-07T04:39:44;2.50;;;2.30;;
20609;SDS011;10463;52.378;9.688;2023-05-07T04:42:31;2.63;;;2.23;;
20609;SDS011;10463;52.378;9.688;2023-05-07T04:45:17;2.30;;;1.90;;
20609;SDS011;10463;52.378;9.688;2023-05-07T04:48:04;2.30;;;1.97;;
20609;SDS011;10463;52.378;9.688;2023-05-07T04:50:50;2.33;;;2.13;;
20609;SDS011;10463;52.378;9.688;2023-05-07T04:53:37;2.73;;;2.40;;
20609;SDS011;10463;52.378;9.688;2023-05-07T04:56:21;5.47;;;2.60;;
20609;SDS011;10463;52.378;9.688;2023-05-07T04:59:08;2.47;;;2.23;;
20609;SDS011;10463;52.378;9.688;2023-05-07T05:01:54;2.67;;;2.47;;
20609;SDS011;10463;52.378;9.688;2023-05-07T05:04:39;2.97;;;2.67;;
20609;SDS011;10463;52.378;9.688;2023-05-07T05:07:24;2.67;;;2.00;;
20609;SDS011;10463;52.378;9.688;2023-05-07T05:10:09;2.70;;;2.30;;
20609;SDS011;10463;52.378;9.688;2023-05-07T05:12:57;2.90;;;2.23;;
20609;SDS011;10463;52.378;9.688;2023-05-07T05:15:44;2.20;;;1.97;;
20609;SDS011;10463;52.378;9.688;2023-05-07T05:18:29;2.40;;;1.97;;
20609;SDS011;10463;52.378;9.688;2023-05-07T05:21:14;2.30;;;1.90;;
20609;SDS011;10463;52.378;9.688;2023-05-07T05:24:01;2.30;;;2.10;;
20609;SDS011;10463;52.378;9.688;2023-05-07T05:26:46;2.47;;;2.00;;
20609;SDS011;10463;52.378;9.688;2023-05-07T05:29:31;3.50;;;2.57;;
20609;SDS011;10463;52.378;9.688;2023-05-07T05:32:17;2.73;;;2.20;;
20609;SDS011;10463;52.378;9.688;2023-05-07T05:35:03;3.20;;;2.90;;
20609;SDS011;10463;52.378;9.688;2023-05-07T05:37:50;2.77;;;2.07;;
20609;SDS011;10463;52.378;9.688;2023-05-07T05:40:36;2.90;;;2.40;;
20609;SDS011;10463;52.378;9.688;2023-05-07T05:43:21;2.30;;;2.07;;
20609;SDS011;10463;52.378;9.688;2023-05-07T05:46:06;2.40;;;2.20;;
20609;SDS011;10463;52.378;9.688;2023-05-07T05:48:54;2.50;;;2.20;;
20609;SDS011;10463;52.378;9.688;2023-05-07T05:51:39;2.53;;;2.10;;
20609;SDS011;10463;52.378;9.688;2023-05-07T05:54:24;2.30;;;1.90;;
20609;SDS011;10463;52.378;9.688;2023-05-07T05:57:10;2.90;;;2.30;;
20609;SDS011;10463;52.378;9.688;2023-05-07T05:59:55;2.80;;;2.20;;
20609;SDS011;10463;52.378;9.688;2023-05-07T06:02:39;2.90;;;2.60;;
20609;SDS011;10463;52.378;9.688;2023-05-07T06:05:26;2.63;;;2.43;;
20609;SDS011;10463;52.378;9.688;2023-05-07T06:08:13;2.93;;;2.60;;
20609;SDS011;10463;52.378;9.688;2023-05-07T06:10:58;2.57;;;2.10;;
20609;SDS011;10463;52.378;9.688;2023-05-07T06:13:45;2.70;;;2.50;;
20609;SDS011;10463;52.378;9.688;2023-05-07T06:16:30;2.53;;;2.13;;
20609;SDS011;10463;52.378;9.688;2023-05-07T06:19:15;2.30;;;1.90;;
20609;SDS011;10463;52.378;9.688;2023-05-07T06:22:04;2.83;;;2.27;;
20609;SDS011;10463;52.378;9.688;2023-05-07T06:24:50;2.80;;;2.30;;
20609;SDS011;10463;52.378;9.688;2023-05-07T06:27:35;2.57;;;2.20;;
20609;SDS011;10463;52.378;9.688;2023-05-07T06:30:20;3.70;;;2.63;;
20609;SDS011;10463;52.378;9.688;2023-05-07T06:33:05;2.83;;;2.30;;
20609;SDS011;10463;52.378;9.688;2023-05-07T06:35:50;2.90;;;2.20;;
20609;SDS011;10463;52.378;9.688;2023-05-07T06:38:36;2.30;;;2.07;;
20609;SDS011;10463;52.378;9.688;2023-05-07T06:41:21;2.93;;;2.63;;
20609;SDS011;10463;52.378;9.688;2023-05-07T06:44:05;2.40;;;2.20;;
20609;SDS011;10463;52.378;9.688;2023-05-07T06:46:56;2.33;;;1.93;;
20609;SDS011;10463;52.378;9.688;2023-05-07T06:49:42;3.00;;;2.50;;
20609;SDS011;10463;52.378;9.688;2023-05-07T06:52:27;3.00;;;2.53;;
20609;SDS011;10463;52.378;9.688;2023-05-07T06:55:14;2.50;;;2.13;;
20609;SDS011;10463;52.378;9.688;2023-05-07T06:57:59;2.57;;;2.23;;
20609;SDS011;10463;52.378;9.688;2023-05-07T07:00:45;2.23;;;1.80;;
20609;SDS011;10463;52.378;9.688;2023-05-07T07:03:31;2.20;;;2.00;;
20609;SDS011;10463;52.378;9.688;2023-05-07T07:06:16;1.93;;;1.73;;
20609;SDS011;10463;52.378;9.688;2023-05-07T07:09:02;2.33;;;2.03;;
20609;SDS011;10463;52.378;9.688;2023-05-07T07:11:49;2.03;;;1.67;;
20609;SDS011;10463;52.378;9.688;2023-05-07T07:14:34;2.40;;;1.90;;
20609;SDS011;10463;52.378;9.688;2023-05-07T07:17:19;2.27;;;2.07;;
20609;SDS011;10463;52.378;9.688;2023-05-07T07:20:05;2.20;;;1.90;;
20609;SDS011;10463;52.378;9.688;2023-05-07T07:22:51;2.30;;;2.00;;
20609;SDS011;10463;52.378;9.688;2023-05-07T07:25:36;2.83;;;2.10;;
20609;SDS011;10463;52.378;9.688;2023-05-07T07:28:22;2.10;;;1.90;;
20609;SDS011;10463;52.378;9.688;2023-05-07T07:31:07;2.47;;;2.03;;
20609;SDS011;10463;52.378;9.688;2023-05-07T07:33:52;2.67;;;2.47;;
20609;SDS011;10463;52.378;9.688;2023-05-07T07:36:38;2.60;;;2.40;;
20609;SDS011;10463;52.378;9.688;2023-05-07T07:39:24;3.40;;;3.10;;
20609;SDS011;10463;52.378;9.688;2023-05-07T07:42:12;2.80;;;2.50;;
20609;SDS011;10463;52.378;9.688;2023-05-07T07:44:58;3.10;;;2.40;;
20609;SDS011;10463;52.378;9.688;2023-05-07T07:47:46;2.80;;;2.60;;
20609;SDS011;10463;52.378;9.688;2023-05-07T07:50:32;2.70;;;2.40;;
20609;SDS011;10463;52.378;9.688;2023-05-07T07:53:17;3.40;;;3.10;;
20609;SDS011;10463;52.378;9.688;2023-05-07T07:56:02;3.30;;;2.67;;
20609;SDS011;10463;52.378;9.688;2023-05-07T07:58:50;3.30;;;3.00;;
20609;SDS011;10463;52.378;9.688;2023-05-07T08:01:37;5.10;;;3.50;;
20609;SDS011;10463;52.378;9.688;2023-05-07T08:04:23;3.37;;;2.90;;
20609;SDS011;10463;52.378;9.688;2023-05-07T08:07:09;3.67;;;3.30;;
20609;SDS011;10463;52.378;9.688;2023-05-07T08:09:57;4.27;;;3.60;;
20609;SDS011;10463;52.378;9.688;2023-05-07T08:12:43;3.57;;;3.27;;
20609;SDS011;10463;52.378;9.688;2023-05-07T08:15:28;3.97;;;3.50;;
20609;SDS011;10463;52.378;9.688;2023-05-07T08:18:14;3.80;;;3.40;;
20609;SDS011;10463;52.378;9.688;2023-05-07T08:21:00;3.73;;;3.33;;
20609;SDS011;10463;52.378;9.688;2023-05-07T08:23:45;4.00;;;3.57;;
20609;SDS011;10463;52.378;9.688;2023-05-07T08:26:30;4.40;;;4.00;;
20609;SDS011;10463;52.378;9.688;2023-05-07T08:29:15;4.57;;;4.17;;
20609;SDS011;10463;52.378;9.688;2023-05-07T08:32:00;4.43;;;4.03;;
20609;SDS011;10463;52.378;9.688;2023-05-07T08:34:46;4.50;;;4.10;;
20609;SDS011;10463;52.378;9.688;2023-05-07T08:37:32;4.33;;;3.93;;
20609;SDS011;10463;52.378;9.688;2023-05-07T08:40:17;3.87;;;3.50;;
20609;SDS011;10463;52.378;9.688;2023-05-07T08:43:02;5.27;;;4.77;;
20609;SDS011;10463;52.378;9.688;2023-05-07T08:45:50;4.50;;;3.90;;
20609;SDS011;10463;52.378;9.688;2023-05-07T08:48:40;4.27;;;3.87;;
20609;SDS011;10463;52.378;9.688;2023-05-07T08:51:31;4.40;;;4.00;;
20609;SDS011;10463;52.378;9.688;2023-05-07T08:54:16;4.90;;;4.47;;
20609;SDS011;10463;52.378;9.688;2023-05-07T08:57:02;5.13;;;4.37;;
20609;SDS011;10463;52.378;9.688;2023-05-07T08:59:47;5.13;;;4.60;;
20609;SDS011;10463;52.378;9.688;2023-05-07T09:02:32;5.20;;;4.70;;
20609;SDS011;10463;52.378;9.688;2023-05-07T09:05:18;5.70;;;5.07;;
20609;SDS011;10463;52.378;9.688;2023-05-07T09:08:06;5.63;;;5.03;;
20609;SDS011;10463;52.378;9.688;2023-05-07T09:10:52;5.27;;;4.77;;
20609;SDS011;10463;52.378;9.688;2023-05-07T09:13:37;6.00;;;5.50;;
20609;SDS011;10463;52.378;9.688;2023-05-07T09:16:23;5.50;;;5.00;;
20609;SDS011;10463;52.378;9.688;2023-05-07T09:19:09;5.50;;;5.00;;
20609;SDS011;10463;52.378;9.688;2023-05-07T09:21:58;5.80;;;5.20;;
20609;SDS011;10463;52.378;9.688;2023-05-07T09:24:48;5.37;;;4.87;;
20609;SDS011;10463;52.378;9.688;2023-05-07T09:27:35;5.77;;;4.90;;
20609;SDS011;10463;52.378;9.688;2023-05-07T09:30:21;5.40;;;4.90;;
20609;SDS011;10463;52.378;9.688;2023-05-07T09:33:07;5.10;;;4.60;;
20609;SDS011;10463;52.378;9.688;2023-05-07T09:35:56;6.20;;;5.63;;
20609;SDS011;10463;52.378;9.688;2023-05-07T09:38:41;5.90;;;5.30;;
20609;SDS011;10463;52.378;9.688;2023-05-07T09:41:28;4.60;;;4.20;;
20609;SDS011;10463;52.378;9.688;2023-05-07T09:44:25;5.10;;;4.60;;
20609;SDS011;10463;52.378;9.688;2023-05-07T09:47:11;5.60;;;5.10;;
20609;SDS011;10463;52.378;9.688;2023-05-07T09:50:02;5.53;;;5.03;;
20609;SDS011;10463;52.378;9.688;2023-05-07T09:52:51;5.00;;;4.53;;
20609;SDS011;10463;52.378;9.688;2023-05-07T09:55:36;5.77;;;5.27;;
20609;SDS011;10463;52.378;9.688;2023-05-07T09:58:24;6.20;;;5.20;;
20609;SDS011;10463;52.378;9.688;2023-05-07T10:01:11;4.70;;;4.30;;
20609;SDS011;10463;52.378;9.688;2023-05-07T10:03:58;4.87;;;4.47;;
20609;SDS011;10463;52.378;9.688;2023-05-07T10:06:44;4.60;;;4.20;;
20609;SDS011;10463;52.378;9.688;2023-05-07T10:09:30;4.50;;;4.10;;
20609;SDS011;10463;52.378;9.688;2023-05-07T10:12:16;4.97;;;4.50;;
20609;SDS011;10463;52.378;9.688;2023-05-07T10:15:05;4.93;;;4.50;;
20609;SDS011;10463;52.378;9.688;2023-05-07T10:17:51;5.80;;;5.20;;
20609;SDS011;10463;52.378;9.688;2023-05-07T10:20:39;5.10;;;4.70;;
20609;SDS011;10463;52.378;9.688;2023-05-07T10:23:27;5.13;;;4.67;;
20609;SDS011;10463;52.378;9.688;2023-05-07T10:26:17;5.20;;;4.70;;
20609;SDS011;10463;52.378;9.688;2023-05-07T10:29:07;5.37;;;4.87;;
20609;SDS011;10463;52.378;9.688;2023-05-07T10:32:02;5.30;;;4.80;;
20609;SDS011;10463;52.378;9.688;2023-05-07T10:35:00;5.23;;;4.40;;
20609;SDS011;10463;52.378;9.688;2023-05-07T10:37:47;5.77;;;4.43;;
20609;SDS011;10463;52.378;9.688;2023-05-07T10:40:32;5.60;;;5.10;;
20609;SDS011;10463;52.378;9.688;2023-05-07T10:43:19;5.20;;;4.70;;
20609;SDS011;10463;52.378;9.688;2023-05-07T10:46:15;5.57;;;5.07;;
20609;SDS011;10463;52.378;9.688;2023-05-07T10:49:09;4.73;;;4.20;;
20609;SDS011;10463;52.378;9.688;2023-05-07T10:52:14;5.00;;;4.50;;
20609;SDS011;10463;52.378;9.688;2023-05-07T10:55:19;4.93;;;4.53;;
20609;SDS011;10463;52.378;9.688;2023-05-07T10:58:23;4.93;;;4.43;;
20609;SDS011;10463;52.378;9.688;2023-05-07T11:01:49;4.90;;;4.40;;
20609;SDS011;10463;52.378;9.688;2023-05-07T11:04:49;4.43;;;4.03;;
20609;SDS011;10463;52.378;9.688;2023-05-07T11:08:04;4.40;;;3.93;;
20609;SDS011;10463;52.378;9.688;2023-05-07T11:10:57;4.70;;;4.10;;
20609;SDS011;10463;52.378;9.688;2023-05-07T11:13:56;4.90;;;4.50;;
20609;SDS011;10463;52.378;9.688;2023-05-07T11:17:01;5.37;;;4.80;;
20609;SDS011;10463;52.378;9.688;2023-05-07T11:19:52;4.90;;;4.40;;
20609;SDS011;10463;52.378;9.688;2023-05-07T11:22:54;4.27;;;3.87;;
20609;SDS011;10463;52.378;9.688;2023-05-07T11:25:46;4.60;;;4.20;;
20609;SDS011;10463;52.378;9.688;2023-05-07T11:28:40;4.90;;;4.47;;
20609;SDS011;10463;52.378;9.688;2023-05-07T11:31:26;4.23;;;3.83;;
20609;SDS011;10463;52.378;9.688;2023-05-07T11:34:15;4.10;;;3.70;;
20609;SDS011;10463;52.378;9.688;2023-05-07T11:37:05;4.97;;;4.50;;
20609;SDS011;10463;52.378;9.688;2023-05-07T11:40:07;4.13;;;3.80;;
20609;SDS011;10463;52.378;9.688;2023-05-07T11:42:54;3.93;;;3.53;;
20609;SDS011;10463;52.378;9.688;2023-05-07T11:45:39;4.53;;;3.40;;
20609;SDS011;10463;52.378;9.688;2023-05-07T11:48:24;4.90;;;3.70;;
20609;SDS011;10463;52.378;9.688;2023-05-07T11:51:09;4.37;;;3.97;;
20609;SDS011;10463;52.378;9.688;2023-05-07T11:53:57;4.57;;;4.17;;
20609;SDS011;10463;52.378;9.688;2023-05-07T11:56:41;4.33;;;3.60;;
20609;SDS011;10463;52.378;9.688;2023-05-07T11:59:27;4.23;;;3.83;;
20609;SDS011;10463;52.378;9.688;2023-05-07T12:02:13;4.13;;;3.73;;
20609;SDS011;10463;52.378;9.688;2023-05-07T12:05:00;3.53;;;3.23;;
20609;SDS011;10463;52.378;9.688;2023-05-07T12:07:45;4.10;;;3.60;;
20609;SDS011;10463;52.378;9.688;2023-05-07T12:10:31;4.20;;;3.80;;
20609;SDS011;10463;52.378;9.688;2023-05-07T12:13:16;4.53;;;4.13;;
20609;SDS011;10463;52.378;9.688;2023-05-07T12:16:01;3.67;;;3.37;;
20609;SDS011;10463;52.378;9.688;2023-05-07T12:18:48;4.80;;;4.10;;
20609;SDS011;10463;52.378;9.688;2023-05-07T12:21:34;4.30;;;3.90;;
20609;SDS011;10463;52.378;9.688;2023-05-07T12:24:19;3.63;;;3.33;;
20609;SDS011;10463;52.378;9.688;2023-05-07T12:27:06;3.80;;;3.50;;
20609;SDS011;10463;52.378;9.688;2023-05-07T12:29:51;4.37;;;3.97;;
20609;SDS011;10463;52.378;9.688;2023-05-07T12:32:36;4.47;;;4.07;;
20609;SDS011;10463;52.378;9.688;2023-05-07T12:35:26;4.00;;;3.70;;
20609;SDS011;10463;52.378;9.688;2023-05-07T12:38:13;3.73;;;3.40;;
20609;SDS011;10463;52.378;9.688;2023-05-07T12:41:00;4.23;;;3.53;;
20609;SDS011;10463;52.378;9.688;2023-05-07T12:43:46;3.87;;;3.53;;
20609;SDS011;10463;52.378;9.688;2023-05-07T12:46:31;3.97;;;3.67;;
20609;SDS011;10463;52.378;9.688;2023-05-07T12:49:15;3.43;;;3.10;;
20609;SDS011;10463;52.378;9.688;2023-05-07T12:52:01;3.57;;;3.27;;
20609;SDS011;10463;52.378;9.688;2023-05-07T12:54:47;3.70;;;3.30;;
20609;SDS011;10463;52.378;9.688;2023-05-07T12:57:37;3.93;;;3.07;;
20609;SDS011;10463;52.378;9.688;2023-05-07T13:00:35;4.83;;;3.00;;
20609;SDS011;10463;52.378;9.688;2023-05-07T13:03:22;3.63;;;3.13;;
20609;SDS011;10463;52.378;9.688;2023-05-07T13:06:09;3.17;;;2.87;;
20609;SDS011;10463;52.378;9.688;2023-05-07T13:08:55;3.17;;;2.73;;
20609;SDS011;10463;52.378;9.688;2023-05-07T13:11:40;3.07;;;2.77;;
20609;SDS011;10463;52.378;9.688;2023-05-07T13:14:25;3.20;;;2.90;;
20609;SDS011;10463;52.378;9.688;2023-05-07T13:17:11;2.97;;;2.77;;
20609;SDS011;10463;52.378;9.688;2023-05-07T13:19:56;2.87;;;2.57;;
20609;SDS011;10463;52.378;9.688;2023-05-07T13:22:40;3.10;;;2.80;;
20609;SDS011;10463;52.378;9.688;2023-05-07T13:25:25;3.27;;;2.97;;
20609;SDS011;10463;52.378;9.688;2023-05-07T13:28:10;2.60;;;2.40;;
20609;SDS011;10463;52.378;9.688;2023-05-07T13:30:56;3.10;;;2.83;;
20609;SDS011;10463;52.378;9.688;2023-05-07T13:33:42;2.53;;;2.33;;
20609;SDS011;10463;52.378;9.688;2023-05-07T13:36:27;2.77;;;2.57;;
20609;SDS011;10463;52.378;9.688;2023-05-07T13:39:12;3.43;;;2.70;;
20609;SDS011;10463;52.378;9.688;2023-05-07T13:41:57;2.40;;;2.20;;
20609;SDS011;10463;52.378;9.688;2023-05-07T13:44:41;2.87;;;2.60;;
20609;SDS011;10463;52.378;9.688;2023-05-07T13:47:27;2.57;;;2.37;;
20609;SDS011;10463;52.378;9.688;2023-05-07T13:50:13;3.20;;;2.90;;
20609;SDS011;10463;52.378;9.688;2023-05-07T13:52:58;2.77;;;2.57;;
20609;SDS011;10463;52.378;9.688;2023-05-07T13:55:42;2.77;;;2.50;;
20609;SDS011;10463;52.378;9.688;2023-05-07T13:58:27;2.73;;;2.47;;
20609;SDS011;10463;52.378;9.688;2023-05-07T14:01:12;2.50;;;2.30;;
20609;SDS011;10463;52.378;9.688;2023-05-07T14:03:56;3.03;;;2.73;;
20609;SDS011;10463;52.378;9.688;2023-05-07T14:06:45;3.27;;;2.97;;
20609;SDS011;10463;52.378;9.688;2023-05-07T14:09:30;3.20;;;2.90;;
20609;SDS011;10463;52.378;9.688;2023-05-07T14:12:15;2.83;;;2.57;;
20609;SDS011;10463;52.378;9.688;2023-05-07T14:15:00;3.13;;;2.90;;
20609;SDS011;10463;52.378;9.688;2023-05-07T14:17:44;2.73;;;2.50;;
20609;SDS011;10463;52.378;9.688;2023-05-07T14:20:29;2.83;;;2.53;;
20609;SDS011;10463;52.378;9.688;2023-05-07T14:23:16;2.90;;;2.60;;
20609;SDS011;10463;52.378;9.688;2023-05-07T14:26:03;2.70;;;2.50;;
20609;SDS011;10463;52.378;9.688;2023-05-07T14:28:48;3.13;;;2.60;;
20609;SDS011;10463;52.378;9.688;2023-05-07T14:31:33;2.83;;;2.63;;
20609;SDS011;10463;52.378;9.688;2023-05-07T14:34:18;3.00;;;2.57;;
20609;SDS011;10463;52.378;9.688;2023-05-07T14:37:02;2.90;;;2.70;;
20609;SDS011;10463;52.378;9.688;2023-05-07T14:39:49;2.90;;;2.70;;
20609;SDS011;10463;52.378;9.688;2023-05-07T14:42:33;3.10;;;2.90;;
20609;SDS011;10463;52.378;9.688;2023-05-07T14:45:18;2.87;;;2.60;;
20609;SDS011;10463;52.378;9.688;2023-05-07T14:48:04;2.60;;;2.40;;
20609;SDS011;10463;52.378;9.688;2023-05-07T14:50:49;3.10;;;2.80;;
20609;SDS011;10463;52.378;9.688;2023-05-07T14:53:33;2.60;;;2.40;;
20609;SDS011;10463;52.378;9.688;2023-05-07T14:56:19;3.30;;;3.00;;
20609;SDS011;10463;52.378;9.688;2023-05-07T14:59:05;2.57;;;2.37;;
20609;SDS011;10463;52.378;9.688;2023-05-07T15:01:51;6.20;;;2.97;;
20609;SDS011;10463;52.378;9.688;2023-05-07T15:04:35;2.80;;;2.60;;
20609;SDS011;10463;52.378;9.688;2023-05-07T15:07:22;3.27;;;2.97;;
20609;SDS011;10463;52.378;9.688;2023-05-07T15:10:07;2.50;;;2.30;;
20609;SDS011;10463;52.378;9.688;2023-05-07T15:12:54;3.40;;;3.00;;
20609;SDS011;10463;52.378;9.688;2023-05-07T15:15:38;3.40;;;3.10;;
20609;SDS011;10463;52.378;9.688;2023-05-07T15:18:24;2.80;;;2.60;;
20609;SDS011;10463;52.378;9.688;2023-05-07T15:21:08;3.37;;;3.00;;
20609;SDS011;10463;52.378;9.688;2023-05-07T15:23:54;3.10;;;2.80;;
20609;SDS011;10463;52.378;9.688;2023-05-07T15:26:39;3.30;;;2.97;;
20609;SDS011;10463;52.378;9.688;2023-05-07T15:29:25;2.90;;;2.70;;
20609;SDS011;10463;52.378;9.688;2023-05-07T15:32:10;3.60;;;3.30;;
20609;SDS011;10463;52.378;9.688;2023-05-07T15:34:55;3.67;;;3.30;;
20609;SDS011;10463;52.378;9.688;2023-05-07T15:37:39;3.30;;;3.00;;
20609;SDS011;10463;52.378;9.688;2023-05-07T15:40:24;2.70;;;2.50;;
20609;SDS011;10463;52.378;9.688;2023-05-07T15:43:09;2.93;;;2.67;;
20609;SDS011;10463;52.378;9.688;2023-05-07T15:45:56;3.37;;;3.07;;
20609;SDS011;10463;52.378;9.688;2023-05-07T15:48:41;2.93;;;2.73;;
20609;SDS011;10463;52.378;9.688;2023-05-07T15:51:25;3.00;;;2.70;;
20609;SDS011;10463;52.378;9.688;2023-05-07T15:54:11;3.10;;;2.80;;
20609;SDS011;10463;52.378;9.688;2023-05-07T15:56:56;2.67;;;2.43;;
20609;SDS011;10463;52.378;9.688;2023-05-07T15:59:40;3.30;;;2.93;;
20609;SDS011;10463;52.378;9.688;2023-05-07T16:02:26;3.20;;;2.90;;
20609;SDS011;10463;52.378;9.688;2023-05-07T16:05:12;3.03;;;2.70;;
20609;SDS011;10463;52.378;9.688;2023-05-07T16:07:57;3.53;;;3.23;;
20609;SDS011;10463;52.378;9.688;2023-05-07T16:10:43;2.73;;;2.53;;
20609;SDS011;10463;52.378;9.688;2023-05-07T16:13:27;3.40;;;2.83;;
20609;SDS011;10463;52.378;9.688;2023-05-07T16:16:12;2.80;;;2.60;;
20609;SDS011;10463;52.378;9.688;2023-05-07T16:18:58;3.73;;;3.43;;
20609;SDS011;10463;52.378;9.688;2023-05-07T16:21:42;3.30;;;2.87;;
20609;SDS011;10463;52.378;9.688;2023-05-07T16:24:27;3.67;;;3.37;;
20609;SDS011;10463;52.378;9.688;2023-05-07T16:27:12;3.30;;;3.00;;
20609;SDS011;10463;52.378;9.688;2023-05-07T16:29:56;4.40;;;3.67;;
20609;SDS011;10463;52.378;9.688;2023-05-07T16:32:41;3.50;;;3.20;;
20609;SDS011;10463;52.378;9.688;2023-05-07T16:35:27;3.07;;;2.77;;
20609;SDS011;10463;52.378;9.688;2023-05-07T16:38:12;3.97;;;3.57;;
20609;SDS011;10463;52.378;9.688;2023-05-07T16:40:57;4.30;;;3.33;;
20609;SDS011;10463;52.378;9.688;2023-05-07T16:43:41;4.10;;;3.60;;
20609;SDS011;10463;52.378;9.688;2023-05-07T16:46:26;4.30;;;3.90;;